Linda — OJML — position and weather

sailwx.info

Track history (hours):
 
Tides and Currents Weather Stations Pressure Air Temp Water Temp Dewpoint Dewpoint Depression Visibility Wind Speed Wind Dir Waves Ship Positions

Linda

Last reported at 2017-May-29 12:59 UTC. Time now 2017-May-29 13:26 UTC.
Position N 60°00' E 029°43'.

Length 140 m; draft 7.1 m.

Type: Ship (hazmat cat A). MMSI: 230984000.

Date/timePositionNaut miles runAvg speedWind from/ knotsBaromVisibWave heightAir tempDewpointWater temp
2017-May-29 12:59N 60°00' E 029°43'0 0.0
2017-May-29 12:26N 60°00' E 029°43'0 0.0
2017-May-29 11:59N 60°00' E 029°43'0 0.0
2017-May-29 11:29N 60°00' E 029°43'0 0.0
2017-May-29 07:38N 60°00' E 029°43'0 0.0
2017-May-29 07:29N 60°00' E 029°43'0 0.0
2017-May-29 06:59N 60°00' E 029°43'0 0.0
2017-May-29 06:20N 60°00' E 029°43'0 0.0
2017-May-29 05:10N 60°00' E 029°43'0 0.6
2017-May-29 05:00N 60°00' E 029°43'1 2.4
2017-May-29 04:31N 59°60' E 029°41'611.0
2017-May-29 04:00N 60°01' E 029°30'611.6
2017-May-29 03:29N 60°02' E 029°18'511.6
2017-May-29 03:00N 60°02' E 029°07'611.4
2017-May-29 02:28N 60°02' E 028°55'511.4
2017-May-29 01:59N 60°02' E 028°44'511.5
2017-May-29 01:31N 60°02' E 028°33'611.2
2017-May-29 01:01N 60°04' E 028°22'611.2
2017-May-29 00:31N 60°07' E 028°13'611.6
2017-May-29 00:00N 60°09' E 028°02'611.7
2017-May-28 23:30N 60°10' E 027°50'611.0
2017-May-28 23:00N 60°09' E 027°40'611.7
2017-May-28 22:30N 60°06' E 027°30'611.7
2017-May-28 22:00N 60°03' E 027°20'611.4
2017-May-28 21:30N 59°60' E 027°10'510.9
2017-May-28 21:00N 59°58' E 026°59'711.7
2017-May-28 20:26N 59°59' E 026°46'511.5
2017-May-28 20:00N 59°59' E 026°36'2512.3
2017-May-28 18:00N 59°52' E 025°49'3412.5
2017-May-28 15:17N 59°45' E 024°43'3412.7
2017-May-28 12:36N 59°35' E 023°38'112.9
2017-May-28 12:30N 59°35' E 023°36'912.7
2017-May-28 11:49N 59°31' E 023°20'260 5.9
2017-May-26 15:40N 56°26' E 017°38'212.6
2017-May-26 15:30N 56°24' E 017°35'612.7
2017-May-26 15:01N 56°20' E 017°26'612.7
2017-May-26 14:30N 56°16' E 017°17'1312.6
2017-May-26 13:30N 56°09' E 016°59'912.0
2017-May-26 12:48N 56°03' E 016°47'412.2
2017-May-26 12:30N 56°02' E 016°41'612.2
2017-May-26 12:00N 55°59' E 016°32'612.3
2017-May-26 11:30N 55°56' E 016°22'612.3
2017-May-26 11:00N 55°53' E 016°12'612.4
2017-May-26 10:31N 55°50' E 016°03'612.5
2017-May-26 10:01N 55°47' E 015°53'612.6
2017-May-26 09:31N 55°43' E 015°44'612.7
2017-May-26 09:01N 55°40' E 015°34'612.5
2017-May-26 08:31N 55°37' E 015°24'612.7
2017-May-26 08:01N 55°34' E 015°15'612.6
2017-May-26 07:31N 55°31' E 015°05'612.5
2017-May-26 07:00N 55°28' E 014°55'612.5
2017-May-26 06:31N 55°25' E 014°46'612.4
2017-May-26 06:01N 55°21' E 014°37'612.9
2017-May-26 05:30N 55°16' E 014°29'612.5
2017-May-26 04:59N 55°12' E 014°21'611.4
2017-May-26 04:27N 55°10' E 014°11'612.3
2017-May-26 03:59N 55°10' E 014°01'612.2
2017-May-26 03:30N 55°11' E 013°51'612.1
2017-May-26 03:00N 55°11' E 013°40'912.4
2017-May-26 02:19N 55°12' E 013°25'2012.7
2017-May-26 00:45N 55°15' E 012°51'313.3
2017-May-26 00:30N 55°17' E 012°46'510.8
2017-May-26 00:00N 55°20' E 012°38'611.8
2017-May-25 23:31N 55°26' E 012°40'611.0
2017-May-25 23:01N 55°31' E 012°42'4 8.9
2017-May-25 22:30N 55°36' E 012°42'511.0
2017-May-25 22:01N 55°41' E 012°41'815.8
2017-May-25 21:31N 55°49' E 012°42'815.2
2017-May-25 21:00N 55°56' E 012°40'815.6
2017-May-25 20:30N 56°04' E 012°37'816.9
2017-May-25 20:01N 56°09' E 012°26'5115.8
2017-May-25 16:48N 56°55' E 011°45'516.7
2017-May-25 16:29N 56°60' E 011°42'816.7
2017-May-25 16:00N 57°07' E 011°37'816.6
2017-May-25 15:30N 57°15' E 011°32'916.9
2017-May-25 14:59N 57°24' E 011°27'1515.7
2017-May-25 14:00N 57°35' E 011°08'816.1
2017-May-25 13:29N 57°41' E 010°57'816.2
2017-May-25 13:00N 57°46' E 010°45'816.9
2017-May-25 12:30N 57°46' E 010°30'816.8
2017-May-25 12:00N 57°43' E 010°15'816.7
2017-May-25 11:30N 57°39' E 010°00'916.7
2017-May-25 10:59N 57°36' E 009°46'816.8
2017-May-25 10:30N 57°31' E 009°34'816.2
2017-May-25 10:00N 57°26' E 009°21'3 5.9
2017-May-25 09:29N 57°24' E 009°18'1 1.2
2017-May-25 09:00N 57°24' E 009°17'1 1.0
2017-May-25 08:30N 57°24' E 009°16'1 1.1
2017-May-25 07:59N 57°24' E 009°15'24614.5
2017-May-24 15:02N 54°02' E 005°06'216.0
2017-May-24 14:56N 54°00' E 005°05'1716.3
2017-May-24 13:52N 53°44' E 004°55'2516.1
2017-May-24 12:19N 53°21' E 004°40'515.9
2017-May-24 12:00N 53°16' E 004°36'815.7
2017-May-24 11:30N 53°09' E 004°30'815.9
2017-May-24 11:00N 53°02' E 004°23'815.9
2017-May-24 10:30N 52°55' E 004°17'815.9
2017-May-24 10:00N 52°48' E 004°12'815.8
2017-May-24 09:30N 52°41' E 004°05'815.5
2017-May-24 09:00N 52°35' E 003°59'713.6
2017-May-24 08:30N 52°28' E 003°54'815.1
2017-May-24 08:01N 52°21' E 003°52'815.1
2017-May-24 07:30N 52°13' E 003°53'815.2
2017-May-24 07:00N 52°06' E 003°54'5 9.7
2017-May-24 06:30N 52°01' E 003°57'815.9
2017-May-24 06:00N 51°58' E 004°09'713.9
2017-May-24 05:30N 51°54' E 004°18'4 8.7
2017-May-24 05:01N 51°53' E 004°24'0 0.8
2017-May-24 04:29N 51°53' E 004°25'0 0.0
2017-May-24 03:59N 51°53' E 004°25'0 0.0
2017-May-24 03:29N 51°53' E 004°25'0 0.0
2017-May-24 02:59N 51°53' E 004°25'0 0.0
2017-May-24 02:29N 51°53' E 004°25'0 0.0
2017-May-24 01:59N 51°53' E 004°25'0 0.0
2017-May-24 01:29N 51°53' E 004°25'0 0.0
2017-May-24 00:59N 51°53' E 004°25'0 0.0
2017-May-24 00:29N 51°53' E 004°25'0 0.0
2017-May-23 23:59N 51°53' E 004°25'0 0.0
2017-May-23 23:30N 51°53' E 004°25'0 0.0
2017-May-23 22:59N 51°53' E 004°25'0 0.0
2017-May-23 22:29N 51°53' E 004°25'0 0.0
2017-May-23 21:56N 51°53' E 004°25'0 0.0
2017-May-23 21:29N 51°53' E 004°25'0 0.0
2017-May-23 21:00N 51°53' E 004°25'0 0.0
2017-May-23 20:29N 51°53' E 004°25'0 0.0
2017-May-23 20:00N 51°53' E 004°25'0 0.0
2017-May-23 19:29N 51°53' E 004°25'0 0.0
2017-May-23 19:00N 51°53' E 004°25'0 0.0
2017-May-23 18:27N 51°53' E 004°25'0 0.0
2017-May-23 17:59N 51°53' E 004°25'0 0.0
2017-May-23 17:29N 51°53' E 004°25'0 0.0
2017-May-23 16:59N 51°53' E 004°25'0 0.0
2017-May-23 16:30N 51°53' E 004°25'0 0.0
2017-May-23 16:00N 51°53' E 004°25'0 0.0
2017-May-23 15:30N 51°53' E 004°25'0 0.0
2017-May-23 15:00N 51°53' E 004°25'0 0.0
2017-May-23 14:29N 51°53' E 004°25'0 0.0
2017-May-23 13:29N 51°53' E 004°25'0 0.0
2017-May-23 12:59N 51°53' E 004°25'0 0.0
2017-May-23 12:29N 51°53' E 004°25'0 0.0
2017-May-23 11:59N 51°53' E 004°25'0 0.0
2017-May-23 11:30N 51°53' E 004°25'0 0.0
2017-May-23 10:59N 51°53' E 004°25'0 0.0
2017-May-23 10:29N 51°53' E 004°25'0 0.0
2017-May-23 09:59N 51°53' E 004°25'1 1.8
2017-May-23 09:31N 51°53' E 004°24'4 8.9
2017-May-23 09:01N 51°54' E 004°17'612.6
2017-May-23 08:30N 51°58' E 004°09'815.6
2017-May-23 08:00N 52°00' E 003°57'612.9
2017-May-23 07:31N 52°00' E 003°46'3 5.7
2017-May-23 07:01N 52°02' E 003°43'815.7
2017-May-23 06:30N 52°07' E 003°33'1117.8
2017-May-23 05:52N 52°13' E 003°17'718.4
2017-May-23 05:29N 52°17' E 003°08'3218.6
2017-May-23 03:46N 52°38' E 002°28'518.4
2017-May-23 03:30N 52°41' E 002°22'918.3
2017-May-23 03:00N 52°47' E 002°11'918.2
2017-May-23 02:31N 52°53' E 001°60'917.8
2017-May-23 02:00N 52°58' E 001°48'917.5
2017-May-23 01:31N 53°04' E 001°37'917.1
2017-May-23 01:00N 53°10' E 001°26'816.8
2017-May-23 00:30N 53°15' E 001°16'816.5
2017-May-23 00:00N 53°22' E 001°08'4116.3
2017-May-22 21:31N 53°54' E 000°27'116.0
2017-May-22 21:27N 53°55' E 000°25'715.7
2017-May-22 21:00N 54°01' E 000°18'815.7
2017-May-22 20:30N 54°06' E 000°09'815.5
2017-May-22 20:00N 54°12' W 000°00'815.7
2017-May-22 19:30N 54°18' W 000°09'815.6
2017-May-22 19:00N 54°24' W 000°18'815.6
2017-May-22 18:30N 54°30' W 000°27'25 1.7
2017-May-22 04:13N 54°43' W 001°02'2 9.8
2017-May-22 04:00N 54°44' W 000°59'5 9.9
2017-May-22 03:30N 54°46' W 000°51'510.0
2017-May-22 02:58N 54°48' W 000°43'2711.8
2017-May-22 00:41N 54°60' W 000°00'712.3
2017-May-22 00:06N 55°03' E 000°11'112.3
2017-May-22 00:01N 55°04' E 000°13'612.4
2017-May-21 23:31N 55°06' E 000°23'1012.5
2017-May-21 22:41N 55°11' E 000°39'212.6
2017-May-21 22:31N 55°12' E 000°42'27312.7
2017-May-21 00:56N 57°10' E 008°05'612.6
2017-May-21 00:29N 57°13' E 008°14'612.4
2017-May-21 00:00N 57°15' E 008°24'712.6
2017-May-20 23:29N 57°18' E 008°35'612.9
2017-May-20 22:59N 57°21' E 008°46'713.1
2017-May-20 22:29N 57°24' E 008°57'613.0
2017-May-20 21:59N 57°27' E 009°07'4212.5
2017-May-20 18:37N 57°43' E 010°19'311.3
2017-May-20 18:20N 57°44' E 010°25'410.7
2017-May-20 18:01N 57°45' E 010°31'510.4
2017-May-20 17:31N 57°47' E 010°41'610.7
2017-May-20 16:59N 57°46' E 010°51'612.0
2017-May-20 16:31N 57°42' E 010°59'612.3
2017-May-20 16:00N 57°38' E 011°07'612.6
2017-May-20 15:30N 57°33' E 011°16'612.9
2017-May-20 15:00N 57°29' E 011°24'612.5
2017-May-20 14:31N 57°23' E 011°29'1312.7
2017-May-20 13:28N 57°11' E 011°37'812.6
2017-May-20 12:52N 57°03' E 011°42'5512.4
2017-May-20 08:26N 56°14' E 012°25'613.1
2017-May-20 08:01N 56°09' E 012°30'612.6
2017-May-20 07:31N 56°04' E 012°37'612.7
2017-May-20 07:00N 55°59' E 012°42'612.6
2017-May-20 06:31N 55°52' E 012°44'612.7
2017-May-20 06:01N 55°46' E 012°42'612.8
2017-May-20 05:31N 55°40' E 012°42'510.2
2017-May-20 05:01N 55°35' E 012°42'510.9
2017-May-20 04:31N 55°29' E 012°42'612.3
2017-May-20 04:00N 55°23' E 012°41'5 9.9
2017-May-20 03:30N 55°18' E 012°41'510.1
2017-May-20 03:01N 55°17' E 012°50'5 9.9
2017-May-20 02:31N 55°16' E 012°58'510.0
2017-May-20 02:00N 55°16' E 013°07'510.1
2017-May-20 01:30N 55°15' E 013°16'510.1
2017-May-20 01:00N 55°15' E 013°25'510.3
2017-May-20 00:30N 55°15' E 013°34'510.5
2017-May-20 00:00N 55°15' E 013°43'510.6
2017-May-19 23:30N 55°14' E 013°52'510.3
2017-May-19 23:00N 55°14' E 014°01'510.4
2017-May-19 22:30N 55°14' E 014°10'4 8.9
2017-May-19 22:00N 55°16' E 014°18'510.2
2017-May-19 21:31N 55°20' E 014°23'510.5
2017-May-19 21:01N 55°24' E 014°29'611.3
2017-May-19 20:31N 55°27' E 014°37'612.8
2017-May-19 20:01N 55°31' E 014°47'713.1
2017-May-19 19:31N 55°34' E 014°57'714.0
2017-May-19 19:00N 55°37' E 015°08'714.4
2017-May-19 18:31N 55°41' E 015°19'714.5
2017-May-19 18:01N 55°44' E 015°30'714.6
2017-May-19 17:31N 55°48' E 015°41'714.5
2017-May-19 17:01N 55°52' E 015°52'714.5
2017-May-19 16:31N 55°55' E 016°03'714.5
2017-May-19 16:01N 55°59' E 016°15'714.5
2017-May-19 15:30N 56°03' E 016°26'714.5
2017-May-19 15:01N 56°06' E 016°37'1414.2
2017-May-19 14:01N 56°14' E 016°58'714.4
2017-May-19 13:30N 56°19' E 017°09'  
Track history (hours):
 
Tides and Currents Weather Stations Pressure Air Temp Water Temp Dewpoint Dewpoint Depression Visibility Wind Speed Wind Dir Waves Ship Positions

Linda

Last reported at 2017-May-29 12:59 UTC. Time now 2017-May-29 13:26 UTC.
Position N 60°00' E 029°43'.

Length 140 m; draft 7.1 m.

Type: Ship (hazmat cat A). MMSI: 230984000.

Date/timePositionNaut miles runAvg speedWind from/ knotsBaromVisibWave heightAir tempDewpointWater temp
2017-May-29 12:59N 60°00' E 029°43'0 0.0
2017-May-29 12:26N 60°00' E 029°43'0 0.0
2017-May-29 11:59N 60°00' E 029°43'0 0.0
2017-May-29 11:29N 60°00' E 029°43'0 0.0
2017-May-29 07:38N 60°00' E 029°43'0 0.0
2017-May-29 07:29N 60°00' E 029°43'0 0.0
2017-May-29 06:59N 60°00' E 029°43'0 0.0
2017-May-29 06:20N 60°00' E 029°43'0 0.0
2017-May-29 05:10N 60°00' E 029°43'0 0.6
2017-May-29 05:00N 60°00' E 029°43'1 2.4
2017-May-29 04:31N 59°60' E 029°41'611.0
2017-May-29 04:00N 60°01' E 029°30'611.6
2017-May-29 03:29N 60°02' E 029°18'511.6
2017-May-29 03:00N 60°02' E 029°07'611.4
2017-May-29 02:28N 60°02' E 028°55'511.4
2017-May-29 01:59N 60°02' E 028°44'511.5
2017-May-29 01:31N 60°02' E 028°33'611.2
2017-May-29 01:01N 60°04' E 028°22'611.2
2017-May-29 00:31N 60°07' E 028°13'611.6
2017-May-29 00:00N 60°09' E 028°02'611.7
2017-May-28 23:30N 60°10' E 027°50'611.0
2017-May-28 23:00N 60°09' E 027°40'611.7
2017-May-28 22:30N 60°06' E 027°30'611.7
2017-May-28 22:00N 60°03' E 027°20'611.4
2017-May-28 21:30N 59°60' E 027°10'510.9
2017-May-28 21:00N 59°58' E 026°59'711.7
2017-May-28 20:26N 59°59' E 026°46'511.5
2017-May-28 20:00N 59°59' E 026°36'2512.3
2017-May-28 18:00N 59°52' E 025°49'3412.5
2017-May-28 15:17N 59°45' E 024°43'3412.7
2017-May-28 12:36N 59°35' E 023°38'112.9
2017-May-28 12:30N 59°35' E 023°36'912.7
2017-May-28 11:49N 59°31' E 023°20'260 5.9
2017-May-26 15:40N 56°26' E 017°38'212.6
2017-May-26 15:30N 56°24' E 017°35'612.7
2017-May-26 15:01N 56°20' E 017°26'612.7
2017-May-26 14:30N 56°16' E 017°17'1312.6
2017-May-26 13:30N 56°09' E 016°59'912.0
2017-May-26 12:48N 56°03' E 016°47'412.2
2017-May-26 12:30N 56°02' E 016°41'612.2
2017-May-26 12:00N 55°59' E 016°32'612.3
2017-May-26 11:30N 55°56' E 016°22'612.3
2017-May-26 11:00N 55°53' E 016°12'612.4
2017-May-26 10:31N 55°50' E 016°03'612.5
2017-May-26 10:01N 55°47' E 015°53'612.6
2017-May-26 09:31N 55°43' E 015°44'612.7
2017-May-26 09:01N 55°40' E 015°34'612.5
2017-May-26 08:31N 55°37' E 015°24'612.7
2017-May-26 08:01N 55°34' E 015°15'612.6
2017-May-26 07:31N 55°31' E 015°05'612.5
2017-May-26 07:00N 55°28' E 014°55'612.5
2017-May-26 06:31N 55°25' E 014°46'612.4
2017-May-26 06:01N 55°21' E 014°37'612.9
2017-May-26 05:30N 55°16' E 014°29'612.5
2017-May-26 04:59N 55°12' E 014°21'611.4
2017-May-26 04:27N 55°10' E 014°11'612.3
2017-May-26 03:59N 55°10' E 014°01'612.2
2017-May-26 03:30N 55°11' E 013°51'612.1
2017-May-26 03:00N 55°11' E 013°40'912.4
2017-May-26 02:19N 55°12' E 013°25'2012.7
2017-May-26 00:45N 55°15' E 012°51'313.3
2017-May-26 00:30N 55°17' E 012°46'510.8
2017-May-26 00:00N 55°20' E 012°38'611.8
2017-May-25 23:31N 55°26' E 012°40'611.0
2017-May-25 23:01N 55°31' E 012°42'4 8.9
2017-May-25 22:30N 55°36' E 012°42'511.0
2017-May-25 22:01N 55°41' E 012°41'815.8
2017-May-25 21:31N 55°49' E 012°42'815.2
2017-May-25 21:00N 55°56' E 012°40'815.6
2017-May-25 20:30N 56°04' E 012°37'816.9
2017-May-25 20:01N 56°09' E 012°26'5115.8
2017-May-25 16:48N 56°55' E 011°45'516.7
2017-May-25 16:29N 56°60' E 011°42'816.7
2017-May-25 16:00N 57°07' E 011°37'816.6
2017-May-25 15:30N 57°15' E 011°32'916.9
2017-May-25 14:59N 57°24' E 011°27'1515.7
2017-May-25 14:00N 57°35' E 011°08'816.1
2017-May-25 13:29N 57°41' E 010°57'816.2
2017-May-25 13:00N 57°46' E 010°45'816.9
2017-May-25 12:30N 57°46' E 010°30'816.8
2017-May-25 12:00N 57°43' E 010°15'816.7
2017-May-25 11:30N 57°39' E 010°00'916.7
2017-May-25 10:59N 57°36' E 009°46'816.8
2017-May-25 10:30N 57°31' E 009°34'816.2
2017-May-25 10:00N 57°26' E 009°21'3 5.9
2017-May-25 09:29N 57°24' E 009°18'1 1.2
2017-May-25 09:00N 57°24' E 009°17'1 1.0
2017-May-25 08:30N 57°24' E 009°16'1 1.1
2017-May-25 07:59N 57°24' E 009°15'24614.5
2017-May-24 15:02N 54°02' E 005°06'216.0
2017-May-24 14:56N 54°00' E 005°05'1716.3
2017-May-24 13:52N 53°44' E 004°55'2516.1
2017-May-24 12:19N 53°21' E 004°40'515.9
2017-May-24 12:00N 53°16' E 004°36'815.7
2017-May-24 11:30N 53°09' E 004°30'815.9
2017-May-24 11:00N 53°02' E 004°23'815.9
2017-May-24 10:30N 52°55' E 004°17'815.9
2017-May-24 10:00N 52°48' E 004°12'815.8
2017-May-24 09:30N 52°41' E 004°05'815.5
2017-May-24 09:00N 52°35' E 003°59'713.6
2017-May-24 08:30N 52°28' E 003°54'815.1
2017-May-24 08:01N 52°21' E 003°52'815.1
2017-May-24 07:30N 52°13' E 003°53'815.2
2017-May-24 07:00N 52°06' E 003°54'5 9.7
2017-May-24 06:30N 52°01' E 003°57'815.9
2017-May-24 06:00N 51°58' E 004°09'713.9
2017-May-24 05:30N 51°54' E 004°18'4 8.7
2017-May-24 05:01N 51°53' E 004°24'0 0.8
2017-May-24 04:29N 51°53' E 004°25'0 0.0
2017-May-24 03:59N 51°53' E 004°25'0 0.0
2017-May-24 03:29N 51°53' E 004°25'0 0.0
2017-May-24 02:59N 51°53' E 004°25'0 0.0
2017-May-24 02:29N 51°53' E 004°25'0 0.0
2017-May-24 01:59N 51°53' E 004°25'0 0.0
2017-May-24 01:29N 51°53' E 004°25'0 0.0
2017-May-24 00:59N 51°53' E 004°25'0 0.0
2017-May-24 00:29N 51°53' E 004°25'0 0.0
2017-May-23 23:59N 51°53' E 004°25'0 0.0
2017-May-23 23:30N 51°53' E 004°25'0 0.0
2017-May-23 22:59N 51°53' E 004°25'0 0.0
2017-May-23 22:29N 51°53' E 004°25'0 0.0
2017-May-23 21:56N 51°53' E 004°25'0 0.0
2017-May-23 21:29N 51°53' E 004°25'0 0.0
2017-May-23 21:00N 51°53' E 004°25'0 0.0
2017-May-23 20:29N 51°53' E 004°25'0 0.0
2017-May-23 20:00N 51°53' E 004°25'0 0.0
2017-May-23 19:29N 51°53' E 004°25'0 0.0
2017-May-23 19:00N 51°53' E 004°25'0 0.0
2017-May-23 18:27N 51°53' E 004°25'0 0.0
2017-May-23 17:59N 51°53' E 004°25'0 0.0
2017-May-23 17:29N 51°53' E 004°25'0 0.0
2017-May-23 16:59N 51°53' E 004°25'0 0.0
2017-May-23 16:30N 51°53' E 004°25'0 0.0
2017-May-23 16:00N 51°53' E 004°25'0 0.0
2017-May-23 15:30N 51°53' E 004°25'0 0.0
2017-May-23 15:00N 51°53' E 004°25'0 0.0
2017-May-23 14:29N 51°53' E 004°25'0 0.0
2017-May-23 13:29N 51°53' E 004°25'0 0.0
2017-May-23 12:59N 51°53' E 004°25'0 0.0
2017-May-23 12:29N 51°53' E 004°25'0 0.0
2017-May-23 11:59N 51°53' E 004°25'0 0.0
2017-May-23 11:30N 51°53' E 004°25'0 0.0
2017-May-23 10:59N 51°53' E 004°25'0 0.0
2017-May-23 10:29N 51°53' E 004°25'0 0.0
2017-May-23 09:59N 51°53' E 004°25'1 1.8
2017-May-23 09:31N 51°53' E 004°24'4 8.9
2017-May-23 09:01N 51°54' E 004°17'612.6
2017-May-23 08:30N 51°58' E 004°09'815.6
2017-May-23 08:00N 52°00' E 003°57'612.9
2017-May-23 07:31N 52°00' E 003°46'3 5.7
2017-May-23 07:01N 52°02' E 003°43'815.7
2017-May-23 06:30N 52°07' E 003°33'1117.8
2017-May-23 05:52N 52°13' E 003°17'718.4
2017-May-23 05:29N 52°17' E 003°08'3218.6
2017-May-23 03:46N 52°38' E 002°28'518.4
2017-May-23 03:30N 52°41' E 002°22'918.3
2017-May-23 03:00N 52°47' E 002°11'918.2
2017-May-23 02:31N 52°53' E 001°60'917.8
2017-May-23 02:00N 52°58' E 001°48'917.5
2017-May-23 01:31N 53°04' E 001°37'917.1
2017-May-23 01:00N 53°10' E 001°26'816.8
2017-May-23 00:30N 53°15' E 001°16'816.5
2017-May-23 00:00N 53°22' E 001°08'4116.3
2017-May-22 21:31N 53°54' E 000°27'116.0
2017-May-22 21:27N 53°55' E 000°25'715.7
2017-May-22 21:00N 54°01' E 000°18'815.7
2017-May-22 20:30N 54°06' E 000°09'815.5
2017-May-22 20:00N 54°12' W 000°00'815.7
2017-May-22 19:30N 54°18' W 000°09'815.6
2017-May-22 19:00N 54°24' W 000°18'815.6
2017-May-22 18:30N 54°30' W 000°27'25 1.7
2017-May-22 04:13N 54°43' W 001°02'2 9.8
2017-May-22 04:00N 54°44' W 000°59'5 9.9
2017-May-22 03:30N 54°46' W 000°51'510.0
2017-May-22 02:58N 54°48' W 000°43'2711.8
2017-May-22 00:41N 54°60' W 000°00'712.3
2017-May-22 00:06N 55°03' E 000°11'112.3
2017-May-22 00:01N 55°04' E 000°13'612.4
2017-May-21 23:31N 55°06' E 000°23'1012.5
2017-May-21 22:41N 55°11' E 000°39'212.6
2017-May-21 22:31N 55°12' E 000°42'27312.7
2017-May-21 00:56N 57°10' E 008°05'612.6
2017-May-21 00:29N 57°13' E 008°14'612.4
2017-May-21 00:00N 57°15' E 008°24'712.6
2017-May-20 23:29N 57°18' E 008°35'612.9
2017-May-20 22:59N 57°21' E 008°46'713.1
2017-May-20 22:29N 57°24' E 008°57'613.0
2017-May-20 21:59N 57°27' E 009°07'4212.5
2017-May-20 18:37N 57°43' E 010°19'311.3
2017-May-20 18:20N 57°44' E 010°25'410.7
2017-May-20 18:01N 57°45' E 010°31'510.4
2017-May-20 17:31N 57°47' E 010°41'610.7
2017-May-20 16:59N 57°46' E 010°51'612.0
2017-May-20 16:31N 57°42' E 010°59'612.3
2017-May-20 16:00N 57°38' E 011°07'612.6
2017-May-20 15:30N 57°33' E 011°16'612.9
2017-May-20 15:00N 57°29' E 011°24'612.5
2017-May-20 14:31N 57°23' E 011°29'1312.7
2017-May-20 13:28N 57°11' E 011°37'812.6
2017-May-20 12:52N 57°03' E 011°42'5512.4
2017-May-20 08:26N 56°14' E 012°25'613.1
2017-May-20 08:01N 56°09' E 012°30'612.6
2017-May-20 07:31N 56°04' E 012°37'612.7
2017-May-20 07:00N 55°59' E 012°42'612.6
2017-May-20 06:31N 55°52' E 012°44'612.7
2017-May-20 06:01N 55°46' E 012°42'612.8
2017-May-20 05:31N 55°40' E 012°42'510.2
2017-May-20 05:01N 55°35' E 012°42'510.9
2017-May-20 04:31N 55°29' E 012°42'612.3
2017-May-20 04:00N 55°23' E 012°41'5 9.9
2017-May-20 03:30N 55°18' E 012°41'510.1
2017-May-20 03:01N 55°17' E 012°50'5 9.9
2017-May-20 02:31N 55°16' E 012°58'510.0
2017-May-20 02:00N 55°16' E 013°07'510.1
2017-May-20 01:30N 55°15' E 013°16'510.1
2017-May-20 01:00N 55°15' E 013°25'510.3
2017-May-20 00:30N 55°15' E 013°34'510.5
2017-May-20 00:00N 55°15' E 013°43'510.6
2017-May-19 23:30N 55°14' E 013°52'510.3
2017-May-19 23:00N 55°14' E 014°01'510.4
2017-May-19 22:30N 55°14' E 014°10'4 8.9
2017-May-19 22:00N 55°16' E 014°18'510.2
2017-May-19 21:31N 55°20' E 014°23'510.5
2017-May-19 21:01N 55°24' E 014°29'611.3
2017-May-19 20:31N 55°27' E 014°37'612.8
2017-May-19 20:01N 55°31' E 014°47'713.1
2017-May-19 19:31N 55°34' E 014°57'714.0
2017-May-19 19:00N 55°37' E 015°08'714.4
2017-May-19 18:31N 55°41' E 015°19'714.5
2017-May-19 18:01N 55°44' E 015°30'714.6
2017-May-19 17:31N 55°48' E 015°41'714.5
2017-May-19 17:01N 55°52' E 015°52'714.5
2017-May-19 16:31N 55°55' E 016°03'714.5
2017-May-19 16:01N 55°59' E 016°15'714.5
2017-May-19 15:30N 56°03' E 016°26'714.5
2017-May-19 15:01N 56°06' E 016°37'1414.2
2017-May-19 14:01N 56°14' E 016°58'714.4
2017-May-19 13:30N 56°19' E 017°09'  

Dump ship's entire track history